sensor_id;sensor_type;location;lat;lon;timestamp;pressure;altitude;pressure_sealevel;temperature;humidity
76594;BME280;65482;50.240;14.302;2023-11-21T00:02:13;98937.72;;;8.21;73.82
76594;BME280;65482;50.240;14.302;2023-11-21T00:04:39;98937.22;;;8.25;73.55
76594;BME280;65482;50.240;14.302;2023-11-21T00:07:04;98937.56;;;8.30;73.74
76594;BME280;65482;50.240;14.302;2023-11-21T00:09:31;98935.47;;;8.34;74.06
76594;BME280;65482;50.240;14.302;2023-11-21T00:11:57;98935.13;;;8.37;73.74
76594;BME280;65482;50.240;14.302;2023-11-21T00:14:24;98936.47;;;8.41;74.23
76594;BME280;65482;50.240;14.302;2023-11-21T00:16:50;98932.53;;;8.45;73.70
76594;BME280;65482;50.240;14.302;2023-11-21T00:19:16;98930.56;;;8.47;74.02
76594;BME280;65482;50.240;14.302;2023-11-21T00:21:42;98933.72;;;8.51;73.82
76594;BME280;65482;50.240;14.302;2023-11-21T00:24:10;98931.06;;;8.51;73.74
76594;BME280;65482;50.240;14.302;2023-11-21T00:26:35;98930.78;;;8.54;73.98
76594;BME280;65482;50.240;14.302;2023-11-21T00:29:03;98933.56;;;8.61;73.79
76594;BME280;65482;50.240;14.302;2023-11-21T00:31:29;98942.44;;;8.60;73.92
76594;BME280;65482;50.240;14.302;2023-11-21T00:33:56;98939.16;;;8.58;73.97
76594;BME280;65482;50.240;14.302;2023-11-21T00:36:21;98937.00;;;8.61;73.96
76594;BME280;65482;50.240;14.302;2023-11-21T00:38:47;98939.63;;;8.61;74.12
76594;BME280;65482;50.240;14.302;2023-11-21T00:41:14;98935.03;;;8.63;73.92
76594;BME280;65482;50.240;14.302;2023-11-21T00:43:39;98940.13;;;8.65;73.86
76594;BME280;65482;50.240;14.302;2023-11-21T00:46:05;98943.44;;;8.67;73.74
76594;BME280;65482;50.240;14.302;2023-11-21T00:48:33;98938.00;;;8.68;73.70
76594;BME280;65482;50.240;14.302;2023-11-21T00:50:59;98936.03;;;8.70;73.55
76594;BME280;65482;50.240;14.302;2023-11-21T00:53:24;98936.88;;;8.71;73.49
76594;BME280;65482;50.240;14.302;2023-11-21T00:55:50;98940.66;;;8.68;73.69
76594;BME280;65482;50.240;14.302;2023-11-21T00:58:17;98951.31;;;8.67;73.61
76594;BME280;65482;50.240;14.302;2023-11-21T01:00:43;98940.00;;;8.66;73.76
76594;BME280;65482;50.240;14.302;2023-11-21T01:03:09;98940.94;;;8.65;73.58
76594;BME280;65482;50.240;14.302;2023-11-21T01:05:35;98942.63;;;8.66;73.67
76594;BME280;65482;50.240;14.302;2023-11-21T01:08:00;98946.88;;;8.67;73.72
76594;BME280;65482;50.240;14.302;2023-11-21T01:10:26;98950.50;;;8.66;73.25
76594;BME280;65482;50.240;14.302;2023-11-21T01:12:51;98947.53;;;8.69;73.63
76594;BME280;65482;50.240;14.302;2023-11-21T01:15:17;98945.41;;;8.65;73.59
76594;BME280;65482;50.240;14.302;2023-11-21T01:17:42;98944.44;;;8.66;73.41
76594;BME280;65482;50.240;14.302;2023-11-21T01:20:08;98944.44;;;8.66;73.33
76594;BME280;65482;50.240;14.302;2023-11-21T01:22:38;98936.84;;;8.63;73.45
76594;BME280;65482;50.240;14.302;2023-11-21T01:25:05;98945.22;;;8.58;73.05
76594;BME280;65482;50.240;14.302;2023-11-21T01:27:35;98938.66;;;8.54;73.19
76594;BME280;65482;50.240;14.302;2023-11-21T01:30:02;98946.84;;;8.51;72.78
76594;BME280;65482;50.240;14.302;2023-11-21T01:32:27;98945.69;;;8.45;73.22
76594;BME280;65482;50.240;14.302;2023-11-21T01:34:54;98946.16;;;8.41;73.30
76594;BME280;65482;50.240;14.302;2023-11-21T01:37:20;98943.00;;;8.37;73.50
76594;BME280;65482;50.240;14.302;2023-11-21T01:39:47;98947.75;;;8.33;73.29
76594;BME280;65482;50.240;14.302;2023-11-21T01:42:13;98947.94;;;8.32;73.65
76594;BME280;65482;50.240;14.302;2023-11-21T01:44:39;98944.78;;;8.28;73.68
76594;BME280;65482;50.240;14.302;2023-11-21T01:47:06;98952.69;;;8.28;73.64
76594;BME280;65482;50.240;14.302;2023-11-21T01:49:32;98951.34;;;8.24;73.90
76594;BME280;65482;50.240;14.302;2023-11-21T01:51:58;98953.63;;;8.19;74.03
76594;BME280;65482;50.240;14.302;2023-11-21T01:54:25;98953.97;;;8.16;73.79
76594;BME280;65482;50.240;14.302;2023-11-21T01:56:50;98958.19;;;8.09;74.15
76594;BME280;65482;50.240;14.302;2023-11-21T01:59:21;98951.91;;;8.02;74.30
76594;BME280;65482;50.240;14.302;2023-11-21T02:01:47;98957.34;;;8.00;74.20
76594;BME280;65482;50.240;14.302;2023-11-21T02:04:13;98957.34;;;8.00;74.16
76594;BME280;65482;50.240;14.302;2023-11-21T02:06:39;98955.19;;;8.04;74.07
76594;BME280;65482;50.240;14.302;2023-11-21T02:09:04;98952.91;;;8.01;73.92
76594;BME280;65482;50.240;14.302;2023-11-21T02:11:30;98952.91;;;8.01;74.01
76594;BME280;65482;50.240;14.302;2023-11-21T02:13:59;98956.34;;;8.01;74.09
76594;BME280;65482;50.240;14.302;2023-11-21T02:16:24;98950.28;;;8.01;74.19
76594;BME280;65482;50.240;14.302;2023-11-21T02:18:51;98946.84;;;8.00;74.27
76594;BME280;65482;50.240;14.302;2023-11-21T02:21:17;98947.81;;;7.99;74.44
76594;BME280;65482;50.240;14.302;2023-11-21T02:23:44;98950.44;;;7.99;74.29
76594;BME280;65482;50.240;14.302;2023-11-21T02:26:12;98946.84;;;8.00;74.44
76594;BME280;65482;50.240;14.302;2023-11-21T02:28:38;98950.28;;;8.01;74.25
76594;BME280;65482;50.240;14.302;2023-11-21T02:31:04;98944.69;;;8.04;74.19
76594;BME280;65482;50.240;14.302;2023-11-21T02:33:30;98940.94;;;8.06;74.08
76594;BME280;65482;50.240;14.302;2023-11-21T02:36:00;98943.25;;;8.09;74.22
76594;BME280;65482;50.240;14.302;2023-11-21T02:38:25;98940.63;;;8.09;74.05
76594;BME280;65482;50.240;14.302;2023-11-21T02:40:51;98943.91;;;8.11;74.04
76594;BME280;65482;50.240;14.302;2023-11-21T02:43:17;98938.66;;;8.11;73.60
76594;BME280;65482;50.240;14.302;2023-11-21T02:45:42;98949.81;;;8.13;73.69
76594;BME280;65482;50.240;14.302;2023-11-21T02:48:08;98955.91;;;8.14;73.60
76594;BME280;65482;50.240;14.302;2023-11-21T02:50:34;98949.66;;;8.15;73.21
76594;BME280;65482;50.240;14.302;2023-11-21T02:53:01;98946.06;;;8.16;73.24
76594;BME280;65482;50.240;14.302;2023-11-21T02:55:27;98943.13;;;8.19;73.05
76594;BME280;65482;50.240;14.302;2023-11-21T02:57:53;98938.50;;;8.13;73.11
76594;BME280;65482;50.240;14.302;2023-11-21T03:00:21;98942.13;;;8.12;73.12
76594;BME280;65482;50.240;14.302;2023-11-21T03:02:49;98940.16;;;8.14;73.09
76594;BME280;65482;50.240;14.302;2023-11-21T03:05:15;98936.38;;;8.16;72.80
76594;BME280;65482;50.240;14.302;2023-11-21T03:07:40;98934.91;;;8.14;73.02
76594;BME280;65482;50.240;14.302;2023-11-21T03:10:07;98933.75;;;8.16;72.90
76594;BME280;65482;50.240;14.302;2023-11-21T03:12:34;98928.81;;;8.13;73.13
76594;BME280;65482;50.240;14.302;2023-11-21T03:15:00;98931.44;;;8.13;73.11
76594;BME280;65482;50.240;14.302;2023-11-21T03:17:27;98934.44;;;8.27;72.70
76594;BME280;65482;50.240;14.302;2023-11-21T03:19:54;98938.06;;;8.26;72.41
76594;BME280;65482;50.240;14.302;2023-11-21T03:22:20;98937.44;;;8.32;72.20
76594;BME280;65482;50.240;14.302;2023-11-21T03:24:45;98942.16;;;8.20;72.54
76594;BME280;65482;50.240;14.302;2023-11-21T03:27:11;98946.56;;;8.20;72.72
76594;BME280;65482;50.240;14.302;2023-11-21T03:29:37;98944.09;;;8.18;72.43
76594;BME280;65482;50.240;14.302;2023-11-21T03:32:03;98945.59;;;8.21;72.65
76594;BME280;65482;50.240;14.302;2023-11-21T03:34:29;98950.69;;;8.22;72.50
76594;BME280;65482;50.240;14.302;2023-11-21T03:36:55;98946.25;;;8.23;72.26
76594;BME280;65482;50.240;14.302;2023-11-21T03:39:20;98948.72;;;8.24;71.87
76594;BME280;65482;50.240;14.302;2023-11-21T03:41:46;98950.34;;;8.25;72.05
76594;BME280;65482;50.240;14.302;2023-11-21T03:44:12;98953.31;;;8.22;72.32
76594;BME280;65482;50.240;14.302;2023-11-21T03:46:38;98954.81;;;8.25;72.27
76594;BME280;65482;50.240;14.302;2023-11-21T03:49:03;98960.06;;;8.25;71.78
76594;BME280;65482;50.240;14.302;2023-11-21T03:51:29;98962.69;;;8.25;71.92
76594;BME280;65482;50.240;14.302;2023-11-21T03:53:55;98965.97;;;8.27;71.99
76594;BME280;65482;50.240;14.302;2023-11-21T03:56:20;98963.34;;;8.27;72.00
76594;BME280;65482;50.240;14.302;2023-11-21T03:58:49;98977.97;;;8.29;71.80
76594;BME280;65482;50.240;14.302;2023-11-21T04:01:24;98973.56;;;8.30;71.86
76594;BME280;65482;50.240;14.302;2023-11-21T04:03:50;98967.28;;;8.31;71.87
76594;BME280;65482;50.240;14.302;2023-11-21T04:06:17;98964.38;;;8.34;71.64
76594;BME280;65482;50.240;14.302;2023-11-21T04:08:43;98970.59;;;8.33;71.56
76594;BME280;65482;50.240;14.302;2023-11-21T04:11:10;98967.97;;;8.33;71.34
76594;BME280;65482;50.240;14.302;2023-11-21T04:13:39;98968.59;;;8.27;71.61
76594;BME280;65482;50.240;14.302;2023-11-21T04:16:08;98969.63;;;8.34;71.74
76594;BME280;65482;50.240;14.302;2023-11-21T04:18:36;98972.41;;;8.32;71.50
76594;BME280;65482;50.240;14.302;2023-11-21T04:21:02;98969.78;;;8.32;71.85
76594;BME280;65482;50.240;14.302;2023-11-21T04:23:29;98980.13;;;8.34;71.32
76594;BME280;65482;50.240;14.302;2023-11-21T04:25:55;98972.56;;;8.31;71.61
76594;BME280;65482;50.240;14.302;2023-11-21T04:28:23;98969.09;;;8.30;71.49
76594;BME280;65482;50.240;14.302;2023-11-21T04:30:50;98982.41;;;8.29;71.68
76594;BME280;65482;50.240;14.302;2023-11-21T04:33:15;98976.81;;;8.24;71.70
76594;BME280;65482;50.240;14.302;2023-11-21T04:35:41;98976.81;;;8.24;71.59
76594;BME280;65482;50.240;14.302;2023-11-21T04:38:07;98971.72;;;8.22;71.54
76594;BME280;65482;50.240;14.302;2023-11-21T04:40:33;98978.44;;;8.25;71.87
76594;BME280;65482;50.240;14.302;2023-11-21T04:42:58;98982.66;;;8.17;71.65
76594;BME280;65482;50.240;14.302;2023-11-21T04:45:24;98987.59;;;8.12;71.92
76594;BME280;65482;50.240;14.302;2023-11-21T04:47:49;98991.66;;;8.07;72.00
76594;BME280;65482;50.240;14.302;2023-11-21T04:50:15;98989.53;;;8.02;71.98
76594;BME280;65482;50.240;14.302;2023-11-21T04:52:40;98995.75;;;8.01;71.86
76594;BME280;65482;50.240;14.302;2023-11-21T04:55:06;98991.31;;;8.02;72.17
76594;BME280;65482;50.240;14.302;2023-11-21T04:57:36;98989.31;;;7.95;72.01
76594;BME280;65482;50.240;14.302;2023-11-21T05:00:02;98990.44;;;7.93;72.37
76594;BME280;65482;50.240;14.302;2023-11-21T05:02:31;98992.03;;;7.86;72.11
76594;BME280;65482;50.240;14.302;2023-11-21T05:04:59;98997.78;;;7.81;72.45
76594;BME280;65482;50.240;14.302;2023-11-21T05:07:25;98997.91;;;7.80;72.31
76594;BME280;65482;50.240;14.302;2023-11-21T05:09:55;99003.34;;;7.78;72.41
76594;BME280;65482;50.240;14.302;2023-11-21T05:12:21;98998.75;;;7.80;72.33
76594;BME280;65482;50.240;14.302;2023-11-21T05:14:49;98999.72;;;7.79;72.57
76594;BME280;65482;50.240;14.302;2023-11-21T05:17:14;98993.34;;;7.82;72.55
76594;BME280;65482;50.240;14.302;2023-11-21T05:19:40;98994.00;;;7.84;72.38
76594;BME280;65482;50.240;14.302;2023-11-21T05:22:06;98998.13;;;7.86;72.33
76594;BME280;65482;50.240;14.302;2023-11-21T05:24:32;99000.44;;;7.89;72.25
76594;BME280;65482;50.240;14.302;2023-11-21T05:26:57;99001.59;;;7.87;72.20
76594;BME280;65482;50.240;14.302;2023-11-21T05:29:23;99008.97;;;7.91;72.48
76594;BME280;65482;50.240;14.302;2023-11-21T05:31:48;99007.53;;;7.97;72.57
76594;BME280;65482;50.240;14.302;2023-11-21T05:34:15;99009.69;;;8.02;72.76
76594;BME280;65482;50.240;14.302;2023-11-21T05:36:43;99008.25;;;8.07;72.73
76594;BME280;65482;50.240;14.302;2023-11-21T05:39:08;99004.66;;;8.08;72.36
76594;BME280;65482;50.240;14.302;2023-11-21T05:41:35;99011.53;;;8.09;71.99
76594;BME280;65482;50.240;14.302;2023-11-21T05:44:00;99013.69;;;8.06;72.07
76594;BME280;65482;50.240;14.302;2023-11-21T05:46:27;99010.06;;;8.07;72.32
76594;BME280;65482;50.240;14.302;2023-11-21T05:48:53;99018.75;;;8.07;71.61
76594;BME280;65482;50.240;14.302;2023-11-21T05:51:18;99020.41;;;8.08;72.11
76594;BME280;65482;50.240;14.302;2023-11-21T05:53:44;99015.00;;;8.10;71.93
76594;BME280;65482;50.240;14.302;2023-11-21T05:56:10;99019.28;;;8.11;71.84
76594;BME280;65482;50.240;14.302;2023-11-21T05:58:35;99016.50;;;8.12;71.68
76594;BME280;65482;50.240;14.302;2023-11-21T06:01:01;99017.16;;;8.14;71.68
76594;BME280;65482;50.240;14.302;2023-11-21T06:03:28;99015.69;;;8.12;71.56
76594;BME280;65482;50.240;14.302;2023-11-21T06:05:53;99016.50;;;8.12;71.46
76594;BME280;65482;50.240;14.302;2023-11-21T06:08:19;99027.66;;;8.14;71.91
76594;BME280;65482;50.240;14.302;2023-11-21T06:10:44;99030.28;;;8.14;71.70
76594;BME280;65482;50.240;14.302;2023-11-21T06:13:10;99031.91;;;8.15;71.58
76594;BME280;65482;50.240;14.302;2023-11-21T06:15:36;99042.44;;;8.15;71.38
76594;BME280;65482;50.240;14.302;2023-11-21T06:18:01;99036.50;;;8.13;71.63
76594;BME280;65482;50.240;14.302;2023-11-21T06:20:27;99040.81;;;8.14;71.52
76594;BME280;65482;50.240;14.302;2023-11-21T06:22:53;99046.72;;;8.16;71.40
76594;BME280;65482;50.240;14.302;2023-11-21T06:25:19;99042.44;;;8.15;71.11
76594;BME280;65482;50.240;14.302;2023-11-21T06:27:46;99049.19;;;8.18;71.42
76594;BME280;65482;50.240;14.302;2023-11-21T06:30:13;99050.84;;;8.19;71.42
76594;BME280;65482;50.240;14.302;2023-11-21T06:32:39;99061.19;;;8.21;71.27
76594;BME280;65482;50.240;14.302;2023-11-21T06:35:06;99067.41;;;8.20;71.25
76594;BME280;65482;50.240;14.302;2023-11-21T06:37:32;99069.88;;;8.21;70.93
76594;BME280;65482;50.240;14.302;2023-11-21T06:39:58;99063.00;;;8.20;71.19
76594;BME280;65482;50.240;14.302;2023-11-21T06:42:25;99066.44;;;8.21;71.21
76594;BME280;65482;50.240;14.302;2023-11-21T06:44:51;99072.50;;;8.21;71.16
76594;BME280;65482;50.240;14.302;2023-11-21T06:47:20;99081.25;;;8.22;71.10
76594;BME280;65482;50.240;14.302;2023-11-21T06:56:34;99067.91;;;8.84;72.77
76594;BME280;65482;50.240;14.302;2023-11-21T06:58:59;99067.78;;;9.02;71.71
76594;BME280;65482;50.240;14.302;2023-11-21T07:01:30;99073.50;;;8.97;70.46
76594;BME280;65482;50.240;14.302;2023-11-21T07:04:05;99071.34;;;8.92;70.15
76594;BME280;65482;50.240;14.302;2023-11-21T07:06:34;99064.78;;;8.88;69.72
76594;BME280;65482;50.240;14.302;2023-11-21T07:09:03;99080.88;;;8.85;69.55
76594;BME280;65482;50.240;14.302;2023-11-21T07:11:32;99072.97;;;8.85;69.78
76594;BME280;65482;50.240;14.302;2023-11-21T07:13:58;99086.97;;;8.86;69.38
76594;BME280;65482;50.240;14.302;2023-11-21T07:16:31;99082.81;;;8.83;69.51
76594;BME280;65482;50.240;14.302;2023-11-21T07:18:58;99084.50;;;8.84;69.05
76594;BME280;65482;50.240;14.302;2023-11-21T07:21:27;99085.47;;;8.83;69.72
76594;BME280;65482;50.240;14.302;2023-11-21T07:23:55;99076.59;;;8.84;69.20
76594;BME280;65482;50.240;14.302;2023-11-21T07:26:21;99091.06;;;8.88;68.93
76594;BME280;65482;50.240;14.302;2023-11-21T07:28:47;99095.19;;;8.91;68.83
76594;BME280;65482;50.240;14.302;2023-11-21T07:31:13;99081.38;;;8.97;68.69
76594;BME280;65482;50.240;14.302;2023-11-21T07:33:39;99085.34;;;9.01;68.59
76594;BME280;65482;50.240;14.302;2023-11-21T07:36:09;99084.88;;;9.06;68.50
76594;BME280;65482;50.240;14.302;2023-11-21T07:38:35;99094.91;;;9.10;68.20
76594;BME280;65482;50.240;14.302;2023-11-21T07:41:05;99087.38;;;9.15;68.14
76594;BME280;65482;50.240;14.302;2023-11-21T07:43:34;99094.94;;;9.19;68.11
76594;BME280;65482;50.240;14.302;2023-11-21T07:46:01;99098.06;;;9.22;67.65
76594;BME280;65482;50.240;14.302;2023-11-21T07:48:31;99096.25;;;9.23;67.98
76594;BME280;65482;50.240;14.302;2023-11-21T07:50:58;99103.19;;;9.40;67.61
76594;BME280;65482;50.240;14.302;2023-11-21T07:53:27;99108.97;;;9.52;66.63
76594;BME280;65482;50.240;14.302;2023-11-21T07:56:02;99108.16;;;9.60;66.64
76594;BME280;65482;50.240;14.302;2023-11-21T07:58:32;99111.75;;;9.67;66.64
76594;BME280;65482;50.240;14.302;2023-11-21T08:01:02;99109.31;;;9.73;66.13
76594;BME280;65482;50.240;14.302;2023-11-21T08:03:28;99110.63;;;9.86;66.01
76594;BME280;65482;50.240;14.302;2023-11-21T08:05:58;99110.94;;;9.74;66.73
76594;BME280;65482;50.240;14.302;2023-11-21T08:08:26;99112.91;;;9.72;66.70
76594;BME280;65482;50.240;14.302;2023-11-21T08:10:57;99113.56;;;9.74;66.53
76594;BME280;65482;50.240;14.302;2023-11-21T08:13:24;99119.34;;;9.78;66.48
76594;BME280;65482;50.240;14.302;2023-11-21T08:15:53;99115.53;;;9.81;66.57
76594;BME280;65482;50.240;14.302;2023-11-21T08:18:19;99118.50;;;9.86;66.39
76594;BME280;65482;50.240;14.302;2023-11-21T08:20:46;99118.84;;;9.83;66.39
76594;BME280;65482;50.240;14.302;2023-11-21T08:23:15;99121.16;;;9.86;66.09
76594;BME280;65482;50.240;14.302;2023-11-21T08:25:45;99122.31;;;9.83;66.02
76594;BME280;65482;50.240;14.302;2023-11-21T08:28:11;99126.91;;;9.81;66.19
76594;BME280;65482;50.240;14.302;2023-11-21T08:30:38;99117.03;;;9.83;66.19
76594;BME280;65482;50.240;14.302;2023-11-21T08:33:03;99121.66;;;9.89;65.64
76594;BME280;65482;50.240;14.302;2023-11-21T08:35:31;99116.22;;;9.91;65.66
76594;BME280;65482;50.240;14.302;2023-11-21T08:37:56;99120.16;;;9.95;65.55
76594;BME280;65482;50.240;14.302;2023-11-21T08:40:22;99121.63;;;9.98;65.59
76594;BME280;65482;50.240;14.302;2023-11-21T08:42:52;99113.88;;;10.04;65.18
76594;BME280;65482;50.240;14.302;2023-11-21T08:45:37;99124.09;;;10.07;65.18
76594;BME280;65482;50.240;14.302;2023-11-21T08:48:03;99127.56;;;10.08;65.02
76594;BME280;65482;50.240;14.302;2023-11-21T08:50:29;99127.38;;;10.18;64.98
76594;BME280;65482;50.240;14.302;2023-11-21T08:52:55;99129.84;;;10.27;64.49
76594;BME280;65482;50.240;14.302;2023-11-21T08:55:21;99130.00;;;10.34;64.22
76594;BME280;65482;50.240;14.302;2023-11-21T08:57:47;99138.25;;;10.39;63.63
76594;BME280;65482;50.240;14.302;2023-11-21T09:00:13;99144.81;;;10.43;63.44
76594;BME280;65482;50.240;14.302;2023-11-21T09:02:44;99145.63;;;10.44;63.20
76594;BME280;65482;50.240;14.302;2023-11-21T09:05:11;99143.53;;;10.39;63.00
76594;BME280;65482;50.240;14.302;2023-11-21T09:07:38;99151.06;;;10.42;63.08
76594;BME280;65482;50.240;14.302;2023-11-21T09:10:06;99150.88;;;10.52;62.66
76594;BME280;65482;50.240;14.302;2023-11-21T09:12:36;99157.00;;;10.52;62.13
76594;BME280;65482;50.240;14.302;2023-11-21T09:15:06;99161.13;;;10.55;62.36
76594;BME280;65482;50.240;14.302;2023-11-21T09:17:33;99167.50;;;10.69;61.97
76594;BME280;65482;50.240;14.302;2023-11-21T09:19:59;99162.88;;;10.71;61.95
76594;BME280;65482;50.240;14.302;2023-11-21T09:22:25;99171.25;;;10.83;61.78
76594;BME280;65482;50.240;14.302;2023-11-21T09:24:51;99165.28;;;10.89;61.60
76594;BME280;65482;50.240;14.302;2023-11-21T09:27:17;99165.53;;;11.10;61.09
76594;BME280;65482;50.240;14.302;2023-11-21T09:29:43;99176.09;;;11.42;61.00
76594;BME280;65482;50.240;14.302;2023-11-21T09:32:09;99162.72;;;11.66;60.03
76594;BME280;65482;50.240;14.302;2023-11-21T09:34:39;99160.28;;;11.88;59.04
76594;BME280;65482;50.240;14.302;2023-11-21T09:37:06;99170.19;;;12.09;58.91
76594;BME280;65482;50.240;14.302;2023-11-21T09:39:32;99160.94;;;12.28;57.25
76594;BME280;65482;50.240;14.302;2023-11-21T09:42:17;99167.97;;;12.50;57.14
76594;BME280;65482;50.240;14.302;2023-11-21T09:47:35;99173.06;;;12.37;56.52
76594;BME280;65482;50.240;14.302;2023-11-21T09:50:04;99172.88;;;12.24;56.71
76594;BME280;65482;50.240;14.302;2023-11-21T09:53:22;99173.66;;;12.09;57.52
76594;BME280;65482;50.240;14.302;2023-11-21T09:55:25;99164.06;;;11.85;57.50
76594;BME280;65482;50.240;14.302;2023-11-21T09:57:58;99168.59;;;11.77;57.94
76594;BME280;65482;50.240;14.302;2023-11-21T10:00:34;99169.47;;;11.69;58.66
76594;BME280;65482;50.240;14.302;2023-11-21T10:03:01;99160.31;;;11.57;58.43
76594;BME280;65482;50.240;14.302;2023-11-21T10:05:28;99175.38;;;11.48;58.17
76594;BME280;65482;50.240;14.302;2023-11-21T10:07:55;99171.44;;;11.44;57.89
76594;BME280;65482;50.240;14.302;2023-11-21T10:10:22;99171.53;;;11.27;58.50
76594;BME280;65482;50.240;14.302;2023-11-21T10:12:54;99169.97;;;11.18;58.56
76594;BME280;65482;50.240;14.302;2023-11-21T10:15:22;99171.25;;;11.22;58.31
76594;BME280;65482;50.240;14.302;2023-11-21T10:17:49;99167.97;;;11.20;58.21
76594;BME280;65482;50.240;14.302;2023-11-21T10:20:15;99165.66;;;11.17;58.75
76594;BME280;65482;50.240;14.302;2023-11-21T10:22:42;99169.31;;;11.16;58.42
76594;BME280;65482;50.240;14.302;2023-11-21T10:25:12;99173.41;;;11.19;58.34
76594;BME280;65482;50.240;14.302;2023-11-21T10:27:47;99171.44;;;11.21;58.93
76594;BME280;65482;50.240;14.302;2023-11-21T10:30:20;99182.41;;;11.32;58.70
76594;BME280;65482;50.240;14.302;2023-11-21T10:32:55;99181.03;;;11.45;58.56
76594;BME280;65482;50.240;14.302;2023-11-21T10:38:49;99179.22;;;11.68;58.31
76594;BME280;65482;50.240;14.302;2023-11-21T10:41:20;99181.88;;;11.68;58.07
76594;BME280;65482;50.240;14.302;2023-11-21T10:43:47;99176.88;;;11.73;57.97
76594;BME280;65482;50.240;14.302;2023-11-21T10:46:14;99181.44;;;11.80;58.14
76594;BME280;65482;50.240;14.302;2023-11-21T10:48:42;99186.34;;;11.91;58.16
76594;BME280;65482;50.240;14.302;2023-11-21T10:51:08;99185.53;;;11.90;57.81
76594;BME280;65482;50.240;14.302;2023-11-21T10:53:44;99184.88;;;11.88;57.89
76594;BME280;65482;50.240;14.302;2023-11-21T11:04:31;99184.09;;;11.57;58.39
76594;BME280;65482;50.240;14.302;2023-11-21T11:07:03;99182.81;;;11.52;58.41
76594;BME280;65482;50.240;14.302;2023-11-21T11:09:31;99183.13;;;11.49;58.34
76594;BME280;65482;50.240;14.302;2023-11-21T11:12:01;99178.22;;;11.46;58.36
76594;BME280;65482;50.240;14.302;2023-11-21T11:14:28;99169.97;;;11.41;58.18
76594;BME280;65482;50.240;14.302;2023-11-21T11:17:13;99173.97;;;11.37;58.56
76594;BME280;65482;50.240;14.302;2023-11-21T11:19:39;99177.63;;;11.36;58.67
76594;BME280;65482;50.240;14.302;2023-11-21T11:22:31;99174.50;;;11.32;58.66
76594;BME280;65482;50.240;14.302;2023-11-21T11:28:21;99171.28;;;11.14;59.78
76594;BME280;65482;50.240;14.302;2023-11-21T11:31:04;99169.63;;;11.13;59.74
76594;BME280;65482;50.240;14.302;2023-11-21T11:36:51;99167.69;;;11.07;59.58
76594;BME280;65482;50.240;14.302;2023-11-21T11:39:41;99162.56;;;11.05;59.36
76594;BME280;65482;50.240;14.302;2023-11-21T11:42:15;99164.41;;;11.05;59.67
76594;BME280;65482;50.240;14.302;2023-11-21T11:58:06;99170.25;;;10.84;61.01
76594;BME280;65482;50.240;14.302;2023-11-21T12:00:57;99172.72;;;10.85;61.21
76594;BME280;65482;50.240;14.302;2023-11-21T12:03:40;99183.75;;;10.89;60.34
76594;BME280;65482;50.240;14.302;2023-11-21T12:06:12;99175.03;;;10.80;60.42
76594;BME280;65482;50.240;14.302;2023-11-21T12:26:20;99177.41;;;10.67;61.58
76594;BME280;65482;50.240;14.302;2023-11-21T12:29:19;99179.88;;;10.60;61.51
76594;BME280;65482;50.240;14.302;2023-11-21T12:32:09;99178.09;;;10.52;61.44
76594;BME280;65482;50.240;14.302;2023-11-21T12:34:46;99182.25;;;10.47;61.56
76594;BME280;65482;50.240;14.302;2023-11-21T12:37:15;99185.19;;;10.44;61.60
76594;BME280;65482;50.240;14.302;2023-11-21T12:39:41;99190.16;;;10.47;61.89
76594;BME280;65482;50.240;14.302;2023-11-21T12:42:07;99189.66;;;10.43;62.37
76594;BME280;65482;50.240;14.302;2023-11-21T12:44:37;99193.44;;;10.32;62.15
76594;BME280;65482;50.240;14.302;2023-11-21T12:47:58;99192.13;;;10.37;62.17
76594;BME280;65482;50.240;14.302;2023-11-21T12:50:29;99190.63;;;10.34;62.75
76594;BME280;65482;50.240;14.302;2023-11-21T12:52:59;99198.22;;;10.29;63.02
76594;BME280;65482;50.240;14.302;2023-11-21T12:55:26;99195.56;;;10.29;62.62
76594;BME280;65482;50.240;14.302;2023-11-21T13:01:28;99200.00;;;10.20;62.98
76594;BME280;65482;50.240;14.302;2023-11-21T13:03:58;99202.66;;;10.20;63.65
76594;BME280;65482;50.240;14.302;2023-11-21T13:06:24;99205.47;;;10.19;63.10
76594;BME280;65482;50.240;14.302;2023-11-21T13:08:51;99205.47;;;10.19;63.17
76594;BME280;65482;50.240;14.302;2023-11-21T13:11:18;99200.84;;;10.12;63.44
76594;BME280;65482;50.240;14.302;2023-11-21T13:13:44;99210.56;;;10.12;63.53
76594;BME280;65482;50.240;14.302;2023-11-21T13:16:10;99212.03;;;10.14;63.87
76594;BME280;65482;50.240;14.302;2023-11-21T13:18:38;99213.34;;;10.10;63.99
76594;BME280;65482;50.240;14.302;2023-11-21T13:21:08;99219.28;;;10.04;64.48
76594;BME280;65482;50.240;14.302;2023-11-21T13:23:39;99226.22;;;10.05;64.54
76594;BME280;65482;50.240;14.302;2023-11-21T13:26:07;99225.56;;;10.03;65.15
76594;BME280;65482;50.240;14.302;2023-11-21T13:28:39;99224.25;;;9.99;65.95
76594;BME280;65482;50.240;14.302;2023-11-21T13:31:24;99234.44;;;9.94;66.31
76594;BME280;65482;50.240;14.302;2023-11-21T13:33:56;99243.94;;;9.70;67.36
76594;BME280;65482;50.240;14.302;2023-11-21T13:36:32;99242.28;;;9.61;68.23
76594;BME280;65482;50.240;14.302;2023-11-21T13:39:03;99241.44;;;9.61;68.83
76594;BME280;65482;50.240;14.302;2023-11-21T13:46:02;99246.38;;;9.55;69.65
76594;BME280;65482;50.240;14.302;2023-11-21T13:54:18;99260.19;;;9.49;70.39
76594;BME280;65482;50.240;14.302;2023-11-21T13:57:23;99261.31;;;9.47;70.25
76594;BME280;65482;50.240;14.302;2023-11-21T14:00:22;99264.59;;;9.41;71.01
76594;BME280;65482;50.240;14.302;2023-11-21T14:03:13;99270.50;;;9.34;71.08
76594;BME280;65482;50.240;14.302;2023-11-21T14:06:12;99275.25;;;9.31;71.19
76594;BME280;65482;50.240;14.302;2023-11-21T14:09:10;99284.44;;;9.27;70.93
76594;BME280;65482;50.240;14.302;2023-11-21T14:11:43;99279.66;;;9.22;70.86
76594;BME280;65482;50.240;14.302;2023-11-21T14:14:29;99289.22;;;9.23;71.14
76594;BME280;65482;50.240;14.302;2023-11-21T14:17:12;99287.81;;;9.11;71.25
76594;BME280;65482;50.240;14.302;2023-11-21T14:19:43;99298.63;;;9.00;72.04